Airfield :
LOGIN :

Register | Disclaimer

   EN    FR    IT 

 










Legend :    VFR   Marginal VFR   IFR   Intensive IFR   Very Intensive IFR
Visi :
Ceiling :
>= 8 km
>= 3000ft
5 to 8 km
1000 to 3000 ft
1500m to 5 km
500 to 1000 ft
800 to 1500m
200 to 500 ft
< 800m
< 200 ft
Symbols :   Thunderstorms  Fog  Heavy snow  Heavy precipitations  Wind > 20 kt
SIGMETs :     Misc.  Thunderstorms  Icing  Turbulence  Mountain Waves  Volcanic Ashes






- Airport Elevation : 472 ft
- IATA code : GME


UMGG - Gomel

CURRENT METAR :
  • 021230Z 24010G13MPS CAVOK 09/M07 Q1009 R28/D NOSIG

EXPIRED METARs :
  • 021200Z 24009G12MPS CAVOK 09/M07 Q1009 R28/D NOSIG
  • 021130Z 24009G12MPS CAVOK 09/M06 Q1009 R28/D NOSIG
  • 021100Z 24010G13MPS CAVOK 09/M06 Q1009 R28/D NOSIG
  • 021030Z 24010G13MPS CAVOK 08/M08 Q1009 R28/CLRD// NOSIG

TAF COR TAF UMGG
Valid from the 02 at 12:00 until the 03 at 12:00 UTC


021100Z 0212/0312 23007G12MPS 9999 BKN015
TEMPO 0212/0218 25010G15MPS 2100 A SHRA BKN007 SCT020CB
TEMPO 0218/0303 2000 BR BKN005
TEMPO 0303/0312 23012G17MPS



MET'MAP, your aeronautical weather chart ! - Copyright ORBIFLY December 2007 - Disclaimer

ORBIFLY MET'MAP TEAM :

Programming & Development : Alexandra Zaïnal
Concept & original design : Baudouin d'Aumeries
Assistance for programming : Marc-Olivier Méhu
Technical & hardware support : Manuel Goepfert

Contact : metmap@orbifly.com




SOURCES & CREDITS :

   NOAA